Time;durP1;ratioP1;P1;durP2;ratioP2;P2;SDS_P1;SDS_P2;PMS_P1;PMS_P2;Temp;Humidity;BMP_temperature;BMP_pressure;BME280_temperature;BME280_humidity;BME280_pressure;Samples;Min_cycle;Max_cycle;Signal;HPM_P1;HPM_P2
2023/01/29 00:01:38;;;;;;;;;;;;;;;-1.13;79.34;101868.56;105042;1294;60056;-77
2023/01/29 00:04:24;;;;;;;;;;;;;;;-1.14;79.34;101860.19;105119;1288;61451;-77
2023/01/29 00:07:11;;;;;;;;;;;;;;;-1.15;79.32;101850.32;105162;1294;74002;-77
2023/01/29 00:09:57;;;;;;;;;;;;;;;-1.17;79.41;101846.18;105166;1288;67184;-77
2023/01/29 00:12:43;;;;;;;;;;;;;;;-1.17;79.39;101842.64;105027;1295;71271;-77
2023/01/29 00:15:29;;;;;;;;;;;;;;;-1.17;79.30;101841.25;105042;1289;61988;-77
2023/01/29 00:18:15;;;;;;;;;;;;;;;-1.16;79.33;101839.93;105180;1288;60189;-77
2023/01/29 00:21:01;;;;;;;;;;;;;;;-1.17;79.32;101837.53;105149;1288;74817;-77
2023/01/29 00:23:49;;;;;;;;;;;;;;;-1.19;79.32;101837.23;105184;1292;68363;-77
2023/01/29 00:26:37;;;;;;;;;;;;;;;-1.21;79.33;101831.07;105023;1289;72334;-77
2023/01/29 00:29:23;;;;;;;;;;;;;;;-1.23;79.29;101825.41;105122;1289;62081;-76
2023/01/29 00:32:10;;;;;;;;;;;;;;;-1.25;79.27;101820.23;105150;1289;62202;-77
2023/01/29 00:34:56;;;;;;;;;;;;;;;-1.27;79.30;101819.23;105041;1290;73857;-76
2023/01/29 00:37:42;;;;;;;;;;;;;;;-1.28;79.22;101823.40;105024;1295;68578;-76
2023/01/29 00:44:56;;;;;;;;;;;;;;;-1.31;79.21;101829.01;105075;1291;71502;-76
2023/01/29 00:46:38;;;;;;;;;;;;;;;-1.39;79.26;101831.52;105081;1288;62062;-77
2023/01/29 00:49:25;;;;;;;;;;;;;;;-1.41;79.28;101831.73;105125;1294;73014;-77
2023/01/29 00:52:23;;;;;;;;;;;;;;;-1.43;79.28;101830.63;105032;1293;67547;-77
2023/01/29 00:55:10;;;;;;;;;;;;;;;-1.44;79.25;101835.30;105033;1290;75227;-76
2023/01/29 00:57:56;;;;;;;;;;;;;;;-1.46;79.23;101842.46;106176;1289;59896;-76
2023/01/29 01:00:42;;;;;;;;;;;;;;;-1.48;79.26;101833.39;106137;1290;60178;-77
2023/01/29 01:03:28;;;;;;;;;;;;;;;-1.49;79.28;101829.60;106131;1289;75685;-77
2023/01/29 01:06:14;;;;;;;;;;;;;;;-1.49;79.29;101831.11;106090;1293;67273;-78
2023/01/29 01:12:05;;;;;;;;;;;;;;;-1.49;79.30;101826.73;106095;1293;59722;-77
2023/01/29 01:14:51;;;;;;;;;;;;;;;-1.49;79.26;101823.35;102104;1288;5155274;-77
2023/01/29 01:17:37;;;;;;;;;;;;;;;-1.49;79.26;101819.97;106122;1293;68564;-77
2023/01/29 01:20:24;;;;;;;;;;;;;;;-1.50;79.22;101816.89;106068;1290;72178;-78
2023/01/29 01:23:10;;;;;;;;;;;;;;;-1.50;79.24;101811.96;106120;1289;60449;-77
2023/01/29 01:25:56;;;;;;;;;;;;;;;-1.52;79.18;101815.42;106085;1289;60202;-77
2023/01/29 01:28:42;;;;;;;;;;;;;;;-1.53;79.18;101818.40;106155;1288;73905;-77
2023/01/29 01:31:28;;;;;;;;;;;;;;;-1.52;79.31;101821.17;106029;1290;67852;-77
2023/01/29 01:34:14;;;;;;;;;;;;;;;-1.51;79.28;101815.50;106161;1288;72510;-77
2023/01/29 01:37:00;;;;;;;;;;;;;;;-1.49;79.27;101810.18;106227;1287;59747;-77
2023/01/29 01:39:47;;;;;;;;;;;;;;;-1.46;79.29;101817.42;106203;1289;60095;-77
2023/01/29 01:42:33;;;;;;;;;;;;;;;-1.43;79.35;101832.15;106049;1288;74685;-77
2023/01/29 01:45:26;;;;;;;;;;;;;;;-1.38;79.40;101828.16;106242;1288;67628;-76
2023/01/29 01:48:15;;;;;;;;;;;;;;;-1.33;79.37;101821.83;106173;1289;71398;-77
2023/01/29 01:51:03;;;;;;;;;;;;;;;-1.28;79.39;101824.09;106209;1288;60396;-77
2023/01/29 01:54:01;;;;;;;;;;;;;;;-1.24;79.35;101816.68;106242;1288;59860;-77
2023/01/29 01:56:48;;;;;;;;;;;;;;;-1.21;79.33;101821.27;106241;1288;74286;-77
2023/01/29 01:59:39;;;;;;;;;;;;;;;-1.17;79.40;101813.19;106244;1288;66498;-77
2023/01/29 02:11:58;;;;;;;;;;;;;;;-1.02;79.39;101798.48;106133;1288;75751;-77
2023/01/29 02:14:44;;;;;;;;;;;;;;;-0.99;79.36;101802.55;106220;1289;67187;-77
2023/01/29 02:17:30;;;;;;;;;;;;;;;-0.96;79.41;101804.21;106101;1288;72381;-77
2023/01/29 02:20:16;;;;;;;;;;;;;;;-0.92;79.39;101804.08;106084;1291;59819;-77
2023/01/29 02:23:02;;;;;;;;;;;;;;;-0.91;79.34;101797.52;106268;1288;59749;-77
2023/01/29 02:26:08;;;;;;;;;;;;;;;-0.89;79.37;101797.61;106289;1288;75374;-77
2023/01/29 02:29:21;;;;;;;;;;;;;;;-0.87;79.42;101799.05;105631;1296;67689;-77
2023/01/29 02:32:16;;;;;;;;;;;;;;;-0.87;79.33;101795.84;105122;1298;72930;-77
2023/01/29 02:35:28;;;;;;;;;;;;;;;-0.87;79.30;101792.13;104558;1296;60537;-76
2023/01/29 02:38:16;;;;;;;;;;;;;;;-0.88;79.32;101797.00;104338;1296;65319;-76
2023/01/29 02:41:34;;;;;;;;;;;;;;;-0.89;79.37;101800.50;104534;1295;74219;-76
2023/01/29 02:44:37;;;;;;;;;;;;;;;-0.89;79.40;101801.36;104105;1305;67204;-76
2023/01/29 02:47:23;;;;;;;;;;;;;;;-0.86;79.42;101797.75;104018;1301;70888;-76
2023/01/29 02:50:31;;;;;;;;;;;;;;;-0.85;79.36;101797.98;103837;1300;349300;-76
2023/01/29 02:53:37;;;;;;;;;;;;;;;-0.85;79.40;101791.23;105235;1299;59974;-77
2023/01/29 02:56:31;;;;;;;;;;;;;;;-0.82;79.41;101785.77;105226;1300;74694;-77
2023/01/29 02:59:20;;;;;;;;;;;;;;;-0.81;79.36;101783.13;105155;1300;67358;-77
2023/01/29 03:02:11;;;;;;;;;;;;;;;-0.80;79.38;101785.89;104500;1303;72286;-76
2023/01/29 03:05:00;;;;;;;;;;;;;;;-0.78;79.44;101785.83;104058;1303;60475;-76
2023/01/29 03:07:57;;;;;;;;;;;;;;;-0.75;79.42;101779.17;104565;1294;62018;-76
2023/01/29 03:10:54;;;;;;;;;;;;;;;-0.74;79.42;101768.91;104496;1296;74022;-76
2023/01/29 03:13:46;;;;;;;;;;;;;;;-0.73;79.35;101762.71;104486;1296;67144;-76
2023/01/29 03:16:52;;;;;;;;;;;;;;;-0.70;79.48;101754.87;104482;1295;71265;-76
2023/01/29 03:19:40;;;;;;;;;;;;;;;-0.68;79.48;101751.75;104612;1288;63367;-76
2023/01/29 03:22:26;;;;;;;;;;;;;;;-0.67;79.46;101747.06;104966;1288;62128;-76
2023/01/29 03:34:37;;;;;;;;;;;;;;;-0.67;79.41;101731.84;105069;1288;62047;-76
2023/01/29 03:37:45;;;;;;;;;;;;;;;-0.67;79.37;101731.52;105018;1289;61951;-76
2023/01/29 03:40:38;;;;;;;;;;;;;;;-0.67;79.39;101725.21;105025;1290;76831;-76
2023/01/29 03:43:44;;;;;;;;;;;;;;;-0.67;79.49;101722.69;104955;1291;67204;-76
2023/01/29 03:46:36;;;;;;;;;;;;;;;-0.66;79.48;101725.95;104820;1296;71627;-77
2023/01/29 03:49:43;;;;;;;;;;;;;;;-0.64;79.39;101725.18;104363;1296;62435;-76
2023/01/29 03:52:41;;;;;;;;;;;;;;;-0.62;79.43;101722.05;103948;1303;62098;-76
2023/01/29 03:55:28;;;;;;;;;;;;;;;-0.61;79.43;101709.91;103948;1303;74409;-76
2023/01/29 03:58:34;;;;;;;;;;;;;;;-0.60;79.44;101700.48;103916;1302;67168;-76
2023/01/29 04:01:28;;;;;;;;;;;;;;;-0.59;79.40;101698.83;103463;1309;70295;-76
2023/01/29 04:04:17;;;;;;;;;;;;;;;-0.58;79.45;101701.73;103455;1310;62140;-76
2023/01/29 04:07:07;;;;;;;;;;;;;;;-0.58;79.38;101698.02;103422;1307;62013;-76
2023/01/29 04:09:57;;;;;;;;;;;;;;;-0.59;79.42;101690.71;103244;1314;75287;-76
2023/01/29 04:12:46;;;;;;;;;;;;;;;-0.60;79.36;101678.64;103253;1311;67390;-76
2023/01/29 04:15:35;;;;;;;;;;;;;;;-0.61;79.44;101674.87;103478;1309;74750;-76
2023/01/29 04:18:21;;;;;;;;;;;;;;;-0.61;79.48;101665.05;103338;1314;62245;-76
2023/01/29 04:21:07;;;;;;;;;;;;;;;-0.61;79.44;101667.08;103381;1309;62972;-77
2023/01/29 04:23:54;;;;;;;;;;;;;;;-0.61;79.43;101669.64;103564;1302;74096;-76
2023/01/29 04:26:40;;;;;;;;;;;;;;;-0.61;79.52;101670.13;103995;1303;67318;-76
2023/01/29 04:29:36;;;;;;;;;;;;;;;-0.60;79.56;101666.45;104173;1305;73244;-76
2023/01/29 04:32:23;;;;;;;;;;;;;;;-0.62;79.57;101657.73;104411;1297;61945;-77
2023/01/29 04:35:23;;;;;;;;;;;;;;;-0.63;79.67;101648.53;104557;1295;61348;-77
2023/01/29 04:38:48;;;;;;;;;;;;;;;-0.64;79.67;101639.85;104689;1289;73680;-77
2023/01/29 04:42:03;;;;;;;;;;;;;;;-0.67;79.75;101637.05;104477;1296;67524;-77
2023/01/29 04:45:15;;;;;;;;;;;;;;;-0.67;79.77;101637.02;104080;1300;71585;-77
2023/01/29 04:48:14;;;;;;;;;;;;;;;-0.68;79.78;101644.61;103553;1306;62095;-77
2023/01/29 04:51:05;;;;;;;;;;;;;;;-0.65;79.85;101646.23;103689;1306;62056;-76
2023/01/29 04:53:58;;;;;;;;;;;;;;;-0.64;79.83;101639.34;103692;1305;74341;-76
2023/01/29 04:56:55;;;;;;;;;;;;;;;-0.65;79.84;101640.15;103721;1306;67343;-76
2023/01/29 04:59:43;;;;;;;;;;;;;;;-0.65;79.86;101640.65;103720;1306;72615;-76
2023/01/29 05:02:30;;;;;;;;;;;;;;;-0.64;79.84;101634.41;103646;1309;62475;-76
2023/01/29 05:05:19;;;;;;;;;;;;;;;-0.65;79.80;101629.14;103533;1305;61930;-76
2023/01/29 05:08:05;;;;;;;;;;;;;;;-0.64;79.82;101624.11;103709;1306;75475;-76
2023/01/29 05:10:53;;;;;;;;;;;;;;;-0.62;79.86;101620.29;103671;1306;73614;-77
2023/01/29 05:13:41;;;;;;;;;;;;;;;-0.63;79.89;101625.02;104143;1302;71316;-76
2023/01/29 05:16:28;;;;;;;;;;;;;;;-0.61;79.87;101623.22;104083;1305;62067;-76
2023/01/29 05:19:15;;;;;;;;;;;;;;;-0.59;79.94;101617.02;104244;1300;60783;-76
2023/01/29 05:22:04;;;;;;;;;;;;;;;-0.58;79.88;101614.56;104511;1294;75178;-76
2023/01/29 05:24:50;;;;;;;;;;;;;;;-0.58;79.84;101608.65;104774;1288;68123;-76
2023/01/29 05:30:43;;;;;;;;;;;;;;;-0.57;79.90;101616.82;105099;1288;60312;-77
2023/01/29 05:33:30;;;;;;;;;;;;;;;-0.55;79.95;101630.77;104942;1288;61687;-77
2023/01/29 05:36:16;;;;;;;;;;;;;;;-0.54;79.92;101636.92;105027;1288;74091;-77
2023/01/29 05:39:02;;;;;;;;;;;;;;;-0.53;79.96;101639.85;105036;1288;68374;-77
2023/01/29 05:41:48;;;;;;;;;;;;;;;-0.52;79.97;101642.08;105000;1288;71082;-77
2023/01/29 05:44:34;;;;;;;;;;;;;;;-0.51;80.01;101647.72;105022;1288;61837;-77
2023/01/29 05:47:20;;;;;;;;;;;;;;;-0.49;80.11;101645.92;104982;1292;61917;-77
2023/01/29 05:50:07;;;;;;;;;;;;;;;-0.50;80.09;101643.36;105023;1288;75060;-77
2023/01/29 05:52:57;;;;;;;;;;;;;;;-0.49;80.20;101647.80;105000;1291;67418;-77
2023/01/29 05:55:44;;;;;;;;;;;;;;;-0.50;80.13;101655.89;104887;1288;71350;-77
2023/01/29 05:58:31;;;;;;;;;;;;;;;-0.50;80.20;101664.16;104962;1291;59504;-77
2023/01/29 06:01:18;;;;;;;;;;;;;;;-0.50;80.23;101662.63;104951;1290;61933;-77
2023/01/29 06:04:05;;;;;;;;;;;;;;;-0.50;80.29;101662.30;105004;1288;75153;-77
2023/01/29 06:06:50;;;;;;;;;;;;;;;-0.49;80.33;101661.51;104949;1288;68502;-77
2023/01/29 06:09:37;;;;;;;;;;;;;;;-0.48;80.35;101654.27;104989;1293;73698;-77
2023/01/29 06:12:23;;;;;;;;;;;;;;;-0.48;80.35;101656.15;104992;1288;60145;-77
2023/01/29 06:15:09;;;;;;;;;;;;;;;-0.48;80.31;101657.00;104930;1294;62129;-77
2023/01/29 06:17:56;;;;;;;;;;;;;;;-0.48;80.39;101661.20;105012;1288;76816;-77
2023/01/29 06:20:42;;;;;;;;;;;;;;;-0.47;80.42;101672.79;105002;1288;68136;-77
2023/01/29 06:23:28;;;;;;;;;;;;;;;-0.45;80.54;101679.80;104981;1292;73673;-77
2023/01/29 06:26:15;;;;;;;;;;;;;;;-0.44;80.43;101683.41;104938;1288;61977;-77
2023/01/29 06:29:01;;;;;;;;;;;;;;;-0.44;80.45;101680.40;104968;1288;61988;-77
2023/01/29 06:31:47;;;;;;;;;;;;;;;-0.41;80.52;101681.02;105048;1288;75762;-77
2023/01/29 06:34:33;;;;;;;;;;;;;;;-0.39;80.55;101680.93;104883;1290;67494;-77
2023/01/29 06:37:19;;;;;;;;;;;;;;;-0.38;80.60;101684.56;105042;1292;72611;-77
2023/01/29 06:40:05;;;;;;;;;;;;;;;-0.37;80.55;101686.95;105034;1288;61038;-76
2023/01/29 06:42:51;;;;;;;;;;;;;;;-0.37;80.58;101683.27;106059;1289;60212;-77
2023/01/29 06:45:37;;;;;;;;;;;;;;;-0.37;80.56;101666.66;106084;1288;75931;-77
2023/01/29 06:48:23;;;;;;;;;;;;;;;-0.36;80.56;101665.16;106111;1288;67291;-76
2023/01/29 06:51:09;;;;;;;;;;;;;;;-0.34;80.61;101662.36;106062;1289;71302;-76
2023/01/29 06:53:55;;;;;;;;;;;;;;;-0.31;80.61;101648.08;106068;1288;59794;-77
2023/01/29 06:56:41;;;;;;;;;;;;;;;-0.28;80.62;101645.70;106047;1291;60039;-76
2023/01/29 06:59:27;;;;;;;;;;;;;;;-0.26;80.56;101631.89;106094;1288;75296;-80
2023/01/29 07:02:13;;;;;;;;;;;;;;;-0.25;80.61;101635.14;106140;1288;67256;-75
2023/01/29 07:04:59;;;;;;;;;;;;;;;-0.23;80.60;101638.48;106069;1292;71500;-79
2023/01/29 07:07:45;;;;;;;;;;;;;;;-0.20;80.64;101641.81;106132;1291;59682;-79
2023/01/29 07:10:31;;;;;;;;;;;;;;;-0.17;80.66;101640.92;106221;1288;60390;-79
2023/01/29 07:13:17;;;;;;;;;;;;;;;-0.16;80.58;101637.41;106111;1288;74451;-78
2023/01/29 07:16:05;;;;;;;;;;;;;;;-0.14;80.69;101634.30;106158;1287;67226;-78
2023/01/29 07:18:51;;;;;;;;;;;;;;;-0.14;80.68;101627.86;106076;1288;71311;-78
2023/01/29 07:21:37;;;;;;;;;;;;;;;-0.11;80.79;101626.96;106025;1288;59785;-78
2023/01/29 07:24:23;;;;;;;;;;;;;;;-0.08;80.72;101628.30;106088;1288;60171;-78
2023/01/29 07:27:09;;;;;;;;;;;;;;;-0.06;80.74;101628.05;106166;1287;73150;-79
2023/01/29 07:29:55;;;;;;;;;;;;;;;-0.05;80.75;101632.13;106097;1288;67567;-78
2023/01/29 07:32:41;;;;;;;;;;;;;;;-0.04;80.75;101632.52;106174;1287;71178;-77
2023/01/29 07:35:27;;;;;;;;;;;;;;;-0.02;80.73;101629.92;106057;1288;59992;-78
2023/01/29 07:38:12;;;;;;;;;;;;;;;0.00;80.79;101634.05;106095;1287;61124;-78
2023/01/29 07:40:58;;;;;;;;;;;;;;;0.03;80.80;101641.60;106142;1288;75395;-79
2023/01/29 07:43:45;;;;;;;;;;;;;;;0.07;80.82;101640.92;105982;1288;68056;-79
2023/01/29 07:46:31;;;;;;;;;;;;;;;0.10;80.87;101642.08;106125;1288;72821;-79
2023/01/29 07:49:16;;;;;;;;;;;;;;;0.13;80.82;101644.73;106158;1288;60196;-79
2023/01/29 07:52:03;;;;;;;;;;;;;;;0.13;80.77;101648.66;106030;1288;60234;-79
2023/01/29 07:54:49;;;;;;;;;;;;;;;0.14;80.80;101652.09;106030;1288;74067;-79
2023/01/29 07:57:34;;;;;;;;;;;;;;;0.15;80.88;101652.60;106053;1288;67369;-79
2023/01/29 08:00:20;;;;;;;;;;;;;;;0.17;80.95;101645.80;106101;1291;71510;-79
2023/01/29 08:03:10;;;;;;;;;;;;;;;0.21;80.93;101640.83;106063;1287;59970;-79
2023/01/29 08:05:57;;;;;;;;;;;;;;;0.23;80.95;101638.23;105946;1289;60395;-80
2023/01/29 08:08:42;;;;;;;;;;;;;;;0.27;81.03;101640.24;98770;1288;10001398;-79
2023/01/29 08:11:28;;;;;;;;;;;;;;;0.31;81.03;101639.44;106139;1287;60291;-79
2023/01/29 08:14:14;;;;;;;;;;;;;;;0.35;80.98;101636.70;106203;1288;59844;-79
2023/01/29 08:17:00;;;;;;;;;;;;;;;0.38;81.01;101628.67;106109;1288;74297;-78
2023/01/29 08:19:46;;;;;;;;;;;;;;;0.41;81.03;101615.25;106102;1288;68142;-78
2023/01/29 08:22:32;;;;;;;;;;;;;;;0.46;81.09;101606.96;106101;1289;72605;-78
2023/01/29 08:25:18;;;;;;;;;;;;;;;0.48;81.05;101600.93;106081;1288;59903;-79
2023/01/29 08:28:04;;;;;;;;;;;;;;;0.51;81.05;101592.92;106213;1288;59161;-79
2023/01/29 08:30:50;;;;;;;;;;;;;;;0.54;81.10;101591.98;106133;1288;75645;-78
2023/01/29 08:33:36;;;;;;;;;;;;;;;0.55;81.04;101591.52;106029;1288;68565;-79
2023/01/29 08:36:22;;;;;;;;;;;;;;;0.53;80.96;101583.30;106070;1290;70502;-79
2023/01/29 08:39:08;;;;;;;;;;;;;;;0.52;81.02;101579.73;105993;1291;60243;-79
2023/01/29 08:41:53;;;;;;;;;;;;;;;0.53;81.08;101583.48;105442;1290;60130;-78
2023/01/29 08:44:40;;;;;;;;;;;;;;;0.55;81.13;101573.06;105043;1288;75514;-78
2023/01/29 08:47:26;;;;;;;;;;;;;;;0.55;81.09;101566.42;105021;1294;67598;-78
2023/01/29 08:50:12;;;;;;;;;;;;;;;0.53;81.11;101573.98;104983;1288;70298;-78
2023/01/29 08:52:59;;;;;;;;;;;;;;;0.51;81.12;101577.32;104980;1288;62025;-78
2023/01/29 08:55:45;;;;;;;;;;;;;;;0.50;81.17;101577.09;104948;1288;61997;-78
2023/01/29 08:58:32;;;;;;;;;;;;;;;0.49;81.19;101580.64;104902;1290;75866;-78
2023/01/29 09:01:18;;;;;;;;;;;;;;;0.49;81.25;101589.29;105021;1289;67335;-78
2023/01/29 09:04:04;;;;;;;;;;;;;;;0.47;81.24;101591.89;104963;1288;72935;-78
2023/01/29 09:06:51;;;;;;;;;;;;;;;0.46;81.28;101590.50;105068;1288;61942;-78
2023/01/29 09:09:37;;;;;;;;;;;;;;;0.44;81.25;101587.38;104913;1289;60206;-77
2023/01/29 09:12:23;;;;;;;;;;;;;;;0.43;81.26;101582.41;105053;1293;75170;-77
2023/01/29 09:15:09;;;;;;;;;;;;;;;0.43;81.28;101577.86;105027;1290;67182;-77
2023/01/29 09:17:55;;;;;;;;;;;;;;;0.47;81.36;101585.28;104894;1295;74182;-78
2023/01/29 09:20:42;;;;;;;;;;;;;;;0.50;81.37;101584.39;105021;1288;62078;-78
2023/01/29 09:23:29;;;;;;;;;;;;;;;0.47;81.25;101583.10;104940;1290;60426;-78
2023/01/29 09:26:15;;;;;;;;;;;;;;;0.47;81.34;101584.79;104997;1288;76611;-78
2023/01/29 09:29:01;;;;;;;;;;;;;;;0.48;81.32;101587.20;105025;1288;70087;-78
2023/01/29 09:31:47;;;;;;;;;;;;;;;0.47;81.34;101587.67;104988;1288;71247;-78
2023/01/29 09:34:33;;;;;;;;;;;;;;;0.47;81.33;101584.13;105039;1288;61839;-78
2023/01/29 09:37:22;;;;;;;;;;;;;;;0.50;81.40;101587.98;105026;1288;62014;-79
2023/01/29 09:40:15;;;;;;;;;;;;;;;0.52;81.45;101585.98;105035;1288;78225;-79
2023/01/29 09:43:03;;;;;;;;;;;;;;;0.55;81.49;101588.30;105165;1288;68522;-79
2023/01/29 09:45:56;;;;;;;;;;;;;;;0.56;81.50;101587.35;105024;1288;72117;-79
2023/01/29 09:48:43;;;;;;;;;;;;;;;0.57;81.42;101590.41;105098;1292;62147;-79
2023/01/29 09:51:33;;;;;;;;;;;;;;;0.57;81.44;101584.99;105110;1288;63074;-79
2023/01/29 09:54:23;;;;;;;;;;;;;;;0.57;81.46;101577.19;105081;1288;75385;-79
2023/01/29 09:57:14;;;;;;;;;;;;;;;0.58;81.48;101570.47;105107;1288;67283;-79
2023/01/29 10:00:00;;;;;;;;;;;;;;;0.62;81.55;101567.52;104999;1294;74350;-79
2023/01/29 10:03:13;;;;;;;;;;;;;;;0.63;81.51;101562.34;104970;1288;61960;-79
2023/01/29 10:06:28;;;;;;;;;;;;;;;0.66;81.46;101560.91;104295;1297;60818;-79
2023/01/29 10:09:15;;;;;;;;;;;;;;;0.66;81.52;101558.89;103871;1302;74163;-79
2023/01/29 10:12:19;;;;;;;;;;;;;;;0.71;81.58;101556.86;103837;1302;67677;-79
2023/01/29 10:15:24;;;;;;;;;;;;;;;0.74;81.59;101557.68;103880;1302;72516;-79
2023/01/29 10:18:31;;;;;;;;;;;;;;;0.73;81.46;101556.27;103960;1302;62088;-79
2023/01/29 10:21:35;;;;;;;;;;;;;;;0.75;81.59;101554.15;103645;1309;60330;-79
2023/01/29 10:24:45;;;;;;;;;;;;;;;0.78;81.56;101551.71;103664;1308;74403;-79
2023/01/29 10:27:33;;;;;;;;;;;;;;;0.78;81.52;101542.38;103925;1308;67354;-82
2023/01/29 10:30:26;;;;;;;;;;;;;;;0.78;81.52;101538.30;103712;1309;75291;-82
2023/01/29 10:33:16;;;;;;;;;;;;;;;0.79;81.60;101533.24;103842;1307;62243;-82
2023/01/29 10:36:05;;;;;;;;;;;;;;;0.80;81.58;101531.08;103910;1309;62052;-82
2023/01/29 10:38:51;;;;;;;;;;;;;;;0.79;81.52;101525.45;103935;1308;75146;-82
2023/01/29 10:41:43;;;;;;;;;;;;;;;0.79;81.58;101513.04;103884;1307;67420;-82
2023/01/29 10:44:39;;;;;;;;;;;;;;;0.82;81.62;101506.89;104149;1302;71832;-82
2023/01/29 10:47:25;;;;;;;;;;;;;;;0.83;81.64;101497.77;104572;1297;62005;-82
2023/01/29 10:50:24;;;;;;;;;;;;;;;0.85;81.59;101485.60;104643;1296;62227;-82
2023/01/29 10:53:16;;;;;;;;;;;;;;;0.81;81.57;101486.85;104635;1296;74857;-82
2023/01/29 10:56:21;;;;;;;;;;;;;;;0.79;81.52;101487.92;104623;1296;66944;-82
2023/01/29 10:59:26;;;;;;;;;;;;;;;0.77;81.65;101493.65;105118;1288;73911;-82
2023/01/29 11:02:15;;;;;;;;;;;;;;;0.75;81.59;101496.77;105323;1288;61888;-79
2023/01/29 11:05:01;;;;;;;;;;;;;;;0.75;81.70;101502.02;105042;1288;63563;-79
2023/01/29 11:07:48;;;;;;;;;;;;;;;0.75;81.72;101497.98;105122;1288;79972;-79
2023/01/29 11:10:40;;;;;;;;;;;;;;;0.77;81.74;101489.24;104969;1288;67946;-80
2023/01/29 11:13:31;;;;;;;;;;;;;;;0.78;81.80;101478.40;105038;1288;71652;-79
2023/01/29 11:16:17;;;;;;;;;;;;;;;0.79;81.76;101484.52;104994;1294;62079;-79
2023/01/29 11:19:03;;;;;;;;;;;;;;;0.78;81.63;101487.06;105125;1287;61940;-80
2023/01/29 11:21:56;;;;;;;;;;;;;;;0.78;81.79;101477.90;105156;1288;74935;-79
2023/01/29 11:24:43;;;;;;;;;;;;;;;0.77;81.72;101468.84;105145;1288;68623;-79
2023/01/29 11:27:31;;;;;;;;;;;;;;;0.76;81.78;101464.07;105017;1288;75269;-80
2023/01/29 11:30:32;;;;;;;;;;;;;;;0.77;81.81;101466.30;105145;1293;61946;-79
2023/01/29 11:33:24;;;;;;;;;;;;;;;0.76;81.81;101463.58;106381;1287;59901;-80
2023/01/29 11:36:31;;;;;;;;;;;;;;;0.77;81.85;101441.52;105366;1288;74430;-80
2023/01/29 11:39:18;;;;;;;;;;;;;;;0.79;81.94;101437.86;105125;1288;67179;-79
2023/01/29 11:42:06;;;;;;;;;;;;;;;0.80;81.91;101429.79;105115;1288;75404;-79
2023/01/29 11:44:52;;;;;;;;;;;;;;;0.81;81.92;101423.54;105114;1292;62171;-79
2023/01/29 11:47:39;;;;;;;;;;;;;;;0.83;81.87;101429.52;105138;1288;61943;-79
2023/01/29 11:50:26;;;;;;;;;;;;;;;0.82;81.86;101424.60;104958;1288;74082;-79
2023/01/29 11:53:31;;;;;;;;;;;;;;;0.85;81.97;101420.46;105036;1288;67259;-79
2023/01/29 11:56:21;;;;;;;;;;;;;;;0.87;81.93;101416.95;105151;1288;71327;-79
2023/01/29 11:59:27;;;;;;;;;;;;;;;0.89;81.94;101418.92;105142;1288;61870;-79
2023/01/29 12:02:23;;;;;;;;;;;;;;;0.90;81.94;101416.26;105331;1288;61951;-82
2023/01/29 12:05:21;;;;;;;;;;;;;;;0.90;81.93;101409.44;105309;1288;73904;-82
2023/01/29 12:08:15;;;;;;;;;;;;;;;0.92;81.97;101410.52;105182;1288;67355;-82
2023/01/29 12:11:08;;;;;;;;;;;;;;;0.91;81.94;101409.66;104931;1288;71663;-80
2023/01/29 12:13:55;;;;;;;;;;;;;;;0.91;81.99;101406.61;105125;1289;61100;-79
2023/01/29 12:17:00;;;;;;;;;;;;;;;0.91;81.96;101400.49;105143;1288;61872;-79
2023/01/29 12:19:52;;;;;;;;;;;;;;;0.92;82.06;101403.74;105163;1294;78246;-79
2023/01/29 12:22:49;;;;;;;;;;;;;;;0.94;82.04;101404.83;105099;1288;67493;-80
2023/01/29 12:25:35;;;;;;;;;;;;;;;0.95;82.10;101394.35;104958;1288;75491;-79
2023/01/29 12:28:26;;;;;;;;;;;;;;;0.97;82.13;101391.88;105112;1288;62045;-79
2023/01/29 12:31:22;;;;;;;;;;;;;;;0.98;82.13;101389.87;105085;1288;60122;-79
2023/01/29 12:34:31;;;;;;;;;;;;;;;0.98;82.10;101391.74;105140;1292;74261;-79
2023/01/29 12:37:40;;;;;;;;;;;;;;;0.98;82.16;101395.83;104659;1296;67295;-82
2023/01/29 12:40:30;;;;;;;;;;;;;;;0.98;82.14;101389.38;104358;1300;71943;-82
2023/01/29 12:43:20;;;;;;;;;;;;;;;0.97;82.20;101384.75;104409;1299;60286;-82
2023/01/29 12:46:11;;;;;;;;;;;;;;;0.98;82.14;101375.92;104395;1300;62093;-82
2023/01/29 12:48:59;;;;;;;;;;;;;;;0.97;82.18;101374.41;104329;1300;74791;-82
2023/01/29 12:51:53;;;;;;;;;;;;;;;1.00;82.20;101370.07;104338;1300;67444;-82
2023/01/29 12:54:47;;;;;;;;;;;;;;;1.01;82.24;101367.22;104299;1300;71424;-82
2023/01/29 12:58:05;;;;;;;;;;;;;;;1.05;82.31;101363.92;104369;1305;62234;-82
2023/01/29 13:00:53;;;;;;;;;;;;;;;1.05;82.22;101355.42;103711;1307;60620;-82
2023/01/29 13:03:49;;;;;;;;;;;;;;;1.05;82.29;101345.27;103633;1308;73392;-82
2023/01/29 13:06:41;;;;;;;;;;;;;;;1.07;82.23;101339.70;103720;1308;67696;-82
2023/01/29 13:09:29;;;;;;;;;;;;;;;1.04;82.21;101334.38;103692;1308;72651;-82
2023/01/29 13:12:20;;;;;;;;;;;;;;;1.02;82.20;101332.96;103736;1308;61954;-82
2023/01/29 13:15:14;;;;;;;;;;;;;;;1.02;82.28;101334.14;104072;1302;61974;-82
2023/01/29 13:18:19;;;;;;;;;;;;;;;1.03;82.28;101329.94;104341;1298;74835;-82
2023/01/29 13:21:10;;;;;;;;;;;;;;;1.03;82.30;101331.96;104488;1299;70073;-80
2023/01/29 13:24:01;;;;;;;;;;;;;;;1.01;82.30;101336.84;104431;1301;73760;-80
2023/01/29 13:26:48;;;;;;;;;;;;;;;1.00;82.32;101339.67;104468;1297;62219;-80
2023/01/29 13:29:34;;;;;;;;;;;;;;;0.99;82.33;101345.10;104447;1299;62105;-80
2023/01/29 13:32:23;;;;;;;;;;;;;;;0.99;82.33;101341.85;104493;1299;75732;-79
2023/01/29 13:35:14;;;;;;;;;;;;;;;0.97;82.34;101342.30;104491;1300;67334;-80
2023/01/29 13:38:00;;;;;;;;;;;;;;;0.98;82.37;101337.92;105059;1291;71279;-79
2023/01/29 13:40:50;;;;;;;;;;;;;;;0.95;82.24;101331.88;105054;1288;62010;-80
2023/01/29 13:43:37;;;;;;;;;;;;;;;0.94;82.31;101330.82;105112;1288;62013;-80
2023/01/29 13:46:24;;;;;;;;;;;;;;;0.96;82.41;101329.52;105143;1291;75353;-80
2023/01/29 13:49:22;;;;;;;;;;;;;;;0.96;82.37;101325.64;105294;1288;67312;-79
2023/01/29 13:52:20;;;;;;;;;;;;;;;0.97;82.34;101327.86;105151;1288;70503;-80
2023/01/29 13:55:08;;;;;;;;;;;;;;;0.97;82.46;101323.61;105209;1291;60065;-80
2023/01/29 13:57:55;;;;;;;;;;;;;;;0.98;82.48;101318.74;105216;1288;62039;-80
2023/01/29 14:00:41;;;;;;;;;;;;;;;0.98;82.37;101317.22;105230;1288;74279;-79
2023/01/29 14:03:27;;;;;;;;;;;;;;;0.97;82.45;101308.69;105296;1288;72298;-80
2023/01/29 14:06:33;;;;;;;;;;;;;;;0.95;82.48;101309.62;105275;1288;77077;-80
2023/01/29 14:09:52;;;;;;;;;;;;;;;0.94;82.42;101305.52;105268;1288;63613;-80
2023/01/29 14:12:39;;;;;;;;;;;;;;;0.94;82.49;101306.04;104669;1299;61924;-80
2023/01/29 14:15:26;;;;;;;;;;;;;;;0.96;82.48;101299.14;104640;1296;74684;-79
2023/01/29 14:18:12;;;;;;;;;;;;;;;0.95;82.44;101296.76;104622;1296;67290;-79
2023/01/29 14:21:05;;;;;;;;;;;;;;;0.94;82.49;101294.15;104631;1296;72524;-79
2023/01/29 14:23:53;;;;;;;;;;;;;;;0.93;82.47;101295.31;104710;1296;62893;-79
2023/01/29 14:26:59;;;;;;;;;;;;;;;0.91;82.48;101295.91;104644;1296;60248;-79
2023/01/29 14:29:46;;;;;;;;;;;;;;;0.89;82.50;101299.25;104308;1300;76824;-79
2023/01/29 14:32:33;;;;;;;;;;;;;;;0.90;82.60;101296.55;104374;1305;70544;-79
2023/01/29 14:35:21;;;;;;;;;;;;;;;0.91;82.58;101288.80;104430;1299;71701;-79
2023/01/29 14:38:12;;;;;;;;;;;;;;;0.92;82.58;101287.65;104399;1299;60451;-80
2023/01/29 14:41:15;;;;;;;;;;;;;;;0.91;82.64;101283.01;104483;1300;60369;-80
2023/01/29 14:44:20;;;;;;;;;;;;;;;0.90;82.62;101272.62;104404;1300;78380;-80
2023/01/29 14:47:16;;;;;;;;;;;;;;;0.89;82.67;101273.45;104447;1300;67793;-80
2023/01/29 14:50:22;;;;;;;;;;;;;;;0.89;82.61;101277.69;104667;1294;260825;-80
2023/01/29 14:53:15;;;;;;;;;;;;;;;0.90;82.70;101272.61;104822;1294;59971;-80
2023/01/29 14:56:13;;;;;;;;;;;;;;;0.91;82.70;101273.85;104865;1294;59867;-80
2023/01/29 14:58:59;;;;;;;;;;;;;;;0.90;82.67;101276.20;104792;1294;74486;-80